Time;durP1;ratioP1;P1;durP2;ratioP2;P2;SDS_P1;SDS_P2;PMS_P1;PMS_P2;Temp;Humidity;BMP_temperature;BMP_pressure;BME280_temperature;BME280_humidity;BME280_pressure;Samples;Min_cycle;Max_cycle;Signal;HPM_P1;HPM_P2
2024/01/01 00:00:22;;;;;;;225.47;214.23;;;;;;;7.02;100.00;99779.72;5010858;28;20468;-38
2024/01/01 00:02:50;;;;;;;236.03;224.53;;;;;;;7.03;100.00;99787.47;5047195;23;20485;-44
2024/01/01 00:05:19;;;;;;;239.80;225.87;;;;;;;7.01;100.00;99776.25;5009840;28;20520;-44
2024/01/01 00:07:50;;;;;;;229.00;217.40;;;;;;;7.02;100.00;99785.84;5002127;28;21284;-41
2024/01/01 00:10:19;;;;;;;242.93;229.70;;;;;;;7.03;100.00;99778.69;5009689;28;20920;-41
2024/01/01 00:12:46;;;;;;;239.53;225.93;;;;;;;7.03;100.00;99784.00;5002429;28;20457;-44
2024/01/01 00:15:14;;;;;;;258.87;245.13;;;;;;;7.02;100.00;99780.53;5010166;28;20531;-43
2024/01/01 00:17:42;;;;;;;243.13;229.50;;;;;;;7.02;100.00;99777.06;5010202;28;20476;-43
2024/01/01 00:20:11;;;;;;;257.27;243.40;;;;;;;7.00;100.00;99771.16;5009653;28;20445;-44
2024/01/01 00:22:41;;;;;;;251.13;236.93;;;;;;;7.02;100.00;99777.88;5003980;28;20853;-42
2024/01/01 00:25:09;;;;;;;247.97;234.57;;;;;;;7.02;100.00;99771.75;4992035;28;20441;-45
2024/01/01 00:27:37;;;;;;;240.63;228.13;;;;;;;7.02;100.00;99766.47;5009046;28;20562;-42
2024/01/01 00:30:06;;;;;;;235.03;223.00;;;;;;;7.01;100.00;99773.63;5009433;28;20519;-45
2024/01/01 00:32:34;;;;;;;248.83;235.83;;;;;;;7.01;100.00;99762.19;5009709;28;21050;-44
2024/01/01 00:35:05;;;;;;;230.70;219.23;;;;;;;7.01;100.00;99767.50;5003046;28;20443;-44
2024/01/01 00:37:33;;;;;;;230.40;219.07;;;;;;;7.02;100.00;99764.63;5012708;28;21049;-41
2024/01/01 00:40:03;;;;;;;231.17;219.27;;;;;;;7.04;100.00;99757.31;5013058;28;20948;-44
2024/01/01 00:42:34;;;;;;;232.93;220.90;;;;;;;7.02;100.00;99759.31;5013933;28;20781;-43
2024/01/01 00:45:02;;;;;;;223.67;212.37;;;;;;;7.04;100.00;99751.19;5013381;28;20948;-40
2024/01/01 00:47:30;;;;;;;215.80;205.47;;;;;;;7.04;100.00;99757.31;5013421;28;20523;-44
2024/01/01 00:49:58;;;;;;;215.37;204.80;;;;;;;7.06;100.00;99754.44;5004707;28;20473;-43
2024/01/01 00:52:26;;;;;;;214.03;203.93;;;;;;;7.07;100.00;99759.56;5013387;28;20453;-45
2024/01/01 00:54:53;;;;;;;212.87;202.00;;;;;;;7.08;100.00;99763.84;5008411;28;20437;-44
2024/01/01 00:57:23;;;;;;;215.93;205.73;;;;;;;7.10;100.00;99761.81;5004414;28;20869;-45
2024/01/01 00:59:50;;;;;;;222.43;211.40;;;;;;;7.12;100.00;99761.63;5013324;28;20567;-42
2024/01/01 01:02:20;;;;;;;220.83;210.43;;;;;;;7.11;100.00;99768.75;5012903;28;20505;-44
2024/01/01 01:04:48;;;;;;;225.97;214.23;;;;;;;7.11;100.00;99770.56;5013434;28;20468;-43
2024/01/01 01:07:32;;;;;;;232.53;221.43;;;;;;;7.11;100.00;99771.41;5001619;28;20475;-44
2024/01/01 01:10:00;;;;;;;231.47;220.87;;;;;;;7.10;100.00;99772.44;5009708;28;20437;-44
2024/01/01 01:12:30;;;;;;;224.03;214.30;;;;;;;7.10;100.00;99776.91;5013197;28;20556;-44
2024/01/01 01:14:57;;;;;;;233.70;222.53;;;;;;;7.09;100.00;99778.75;5013205;28;21014;-42
2024/01/01 01:17:25;;;;;;;231.53;220.60;;;;;;;7.07;100.00;99774.66;5012337;28;20519;-43
2024/01/01 01:19:53;;;;;;;238.57;228.10;;;;;;;7.06;100.00;99773.00;5012680;28;20444;-41
2024/01/01 01:22:21;;;;;;;225.60;215.60;;;;;;;7.06;100.00;99778.31;5012958;28;20960;-43
2024/01/01 01:24:48;;;;;;;221.50;211.63;;;;;;;7.05;100.00;99776.66;5013276;28;20525;-42
2024/01/01 01:27:16;;;;;;;212.10;202.63;;;;;;;7.03;100.00;99774.22;5012425;28;20453;-43
2024/01/01 01:29:45;;;;;;;220.97;211.37;;;;;;;7.03;100.00;99768.91;5012561;28;20476;-41
2024/01/01 01:32:13;;;;;;;221.93;212.30;;;;;;;7.06;100.00;99778.31;5012273;28;20532;-42
2024/01/01 01:34:41;;;;;;;227.63;217.73;;;;;;;7.06;100.00;99768.53;5012685;28;20499;-41
2024/01/01 01:37:08;;;;;;;231.57;221.97;;;;;;;7.05;100.00;99774.00;5003955;28;20461;-40
2024/01/01 01:39:36;;;;;;;225.30;215.50;;;;;;;7.05;100.00;99777.47;5012206;28;20904;-45
2024/01/01 01:42:04;;;;;;;212.87;203.43;;;;;;;7.06;100.00;99770.34;5012494;28;20468;-44
2024/01/01 01:44:33;;;;;;;215.90;206.23;;;;;;;7.04;100.00;99759.13;5012052;28;20476;-43
2024/01/01 01:47:02;;;;;;;224.27;214.70;;;;;;;7.06;100.00;99767.72;5011289;28;20452;-44
2024/01/01 01:49:32;;;;;;;220.77;211.23;;;;;;;7.05;100.00;99772.19;5012547;28;20433;-41
2024/01/01 01:52:03;;;;;;;218.73;208.70;;;;;;;7.04;100.00;99767.09;5012509;28;20469;-41
2024/01/01 01:54:34;;;;;;;229.50;219.30;;;;;;;7.03;100.00;99758.31;4999627;28;20978;-43
2024/01/01 01:57:02;;;;;;;230.17;219.20;;;;;;;7.03;100.00;99763.63;5004893;28;20446;-41
2024/01/01 01:59:30;;;;;;;228.87;219.00;;;;;;;7.00;100.00;99758.72;5006033;28;20505;-46
2024/01/01 02:01:59;;;;;;;230.63;220.33;;;;;;;7.01;100.00;99770.13;5013443;28;20523;-45
2024/01/01 02:04:28;;;;;;;229.53;218.80;;;;;;;6.99;100.00;99765.03;5013605;28;20800;-44
2024/01/01 02:06:56;;;;;;;231.23;220.90;;;;;;;6.99;100.00;99766.88;5013161;28;20473;-44
2024/01/01 02:09:23;;;;;;;239.93;228.03;;;;;;;7.00;100.00;99771.16;5013225;28;20994;-45
2024/01/01 02:11:51;;;;;;;248.43;236.50;;;;;;;6.98;100.00;99766.06;5013154;28;20469;-41
2024/01/01 02:14:19;;;;;;;242.43;230.30;;;;;;;6.96;100.00;99765.41;5012976;28;20437;-41
2024/01/01 02:16:48;;;;;;;242.37;231.27;;;;;;;6.95;100.00;99765.63;5012680;28;20456;-45
2024/01/01 02:19:20;;;;;;;239.27;228.20;;;;;;;6.92;100.00;99758.88;5013119;28;20477;-45
2024/01/01 02:21:50;;;;;;;240.20;228.50;;;;;;;6.92;100.00;99769.50;5012870;28;20808;-41
2024/01/01 02:24:20;;;;;;;242.93;230.17;;;;;;;6.90;100.00;99762.75;5004631;28;20523;-44
2024/01/01 02:26:49;;;;;;;231.57;219.67;;;;;;;6.88;100.00;99768.25;5012852;28;20447;-44
2024/01/01 02:29:17;;;;;;;231.17;220.20;;;;;;;6.85;100.00;99768.63;5010749;28;20444;-42
2024/01/01 02:31:46;;;;;;;233.57;221.97;;;;;;;6.85;100.00;99763.31;5007394;28;20461;-42
2024/01/01 02:34:14;;;;;;;227.80;216.70;;;;;;;6.86;100.00;99764.97;5012614;28;20524;-43
2024/01/01 02:36:42;;;;;;;231.87;220.83;;;;;;;6.86;100.00;99767.63;5012534;28;20868;-45
2024/01/01 02:39:10;;;;;;;234.90;223.67;;;;;;;6.83;100.00;99757.41;5012120;28;20535;-42
2024/01/01 02:41:40;;;;;;;231.43;219.37;;;;;;;6.84;100.00;99758.25;5012652;28;20772;-44
2024/01/01 02:44:08;;;;;;;236.43;224.63;;;;;;;6.84;100.00;99761.69;5012625;28;20437;-43
2024/01/01 02:46:36;;;;;;;233.77;222.47;;;;;;;6.82;100.00;99755.78;5012713;28;20512;-44
2024/01/01 02:49:04;;;;;;;238.63;227.30;;;;;;;6.81;100.00;99761.28;5011615;28;20457;-45
2024/01/01 02:51:32;;;;;;;231.80;220.70;;;;;;;6.81;100.00;99761.28;5004758;28;20457;-41
2024/01/01 02:54:00;;;;;;;233.63;222.60;;;;;;;6.82;100.00;99760.25;5007259;28;20929;-41
2024/01/01 02:56:28;;;;;;;238.70;226.83;;;;;;;6.82;100.00;99755.78;5012255;28;20469;-42
2024/01/01 02:58:57;;;;;;;238.63;227.63;;;;;;;6.79;100.00;99748.22;5011574;28;20477;-45
2024/01/01 03:01:25;;;;;;;238.83;226.63;;;;;;;6.75;100.00;99746.97;5011614;28;20531;-43
2024/01/01 03:03:52;;;;;;;231.13;219.40;;;;;;;6.74;100.00;99752.47;5011967;28;21030;-42
2024/01/01 03:06:20;;;;;;;232.30;221.37;;;;;;;6.71;100.00;99744.91;5003969;28;20442;-42
2024/01/01 03:08:48;;;;;;;227.67;216.03;;;;;;;6.72;100.00;99741.25;5011467;28;20841;-46
2024/01/01 03:11:16;;;;;;;215.37;204.53;;;;;;;6.72;100.00;99744.69;5012110;28;20457;-43
2024/01/01 03:13:44;;;;;;;215.50;204.00;;;;;;;6.71;100.00;99745.72;5012312;28;20440;-44
2024/01/01 03:16:15;;;;;;;214.87;204.30;;;;;;;6.73;100.00;99748.16;5011910;28;20548;-43
2024/01/01 03:18:43;;;;;;;211.93;201.53;;;;;;;6.74;100.00;99742.69;5011590;28;20469;-42
2024/01/01 03:21:10;;;;;;;212.77;202.03;;;;;;;6.76;100.00;99743.31;5012175;28;20544;-43
2024/01/01 03:23:38;;;;;;;217.23;206.57;;;;;;;6.75;100.00;99741.66;5012305;28;20441;-43
2024/01/01 03:26:06;;;;;;;212.90;202.70;;;;;;;6.77;100.00;99738.81;5012250;28;20483;-43
2024/01/01 03:28:34;;;;;;;204.17;193.80;;;;;;;6.77;100.00;99728.22;5003596;28;20457;-42
2024/01/01 03:31:01;;;;;;;209.80;199.57;;;;;;;6.77;100.00;99739.66;5012075;28;20444;-41
2024/01/01 03:33:34;;;;;;;210.73;200.17;;;;;;;6.78;100.00;99740.47;5003741;28;20437;-41
2024/01/01 03:36:01;;;;;;;213.67;203.30;;;;;;;6.77;100.00;99730.88;5012070;28;20441;-43
2024/01/01 03:38:29;;;;;;;214.40;203.70;;;;;;;6.77;100.00;99739.66;5011030;28;20500;-44
2024/01/01 03:40:57;;;;;;;215.50;204.40;;;;;;;6.77;100.00;99744.94;5011748;28;20437;-41
2024/01/01 03:43:25;;;;;;;214.10;203.23;;;;;;;6.75;100.00;99744.31;5011360;28;20440;-43
2024/01/01 03:45:53;;;;;;;222.00;209.30;;;;;;;6.75;100.00;99735.56;5012122;28;20445;-42
2024/01/01 03:48:20;;;;;;;213.50;201.77;;;;;;;6.76;100.00;99738.00;5003070;28;20462;-46
2024/01/01 03:50:50;;;;;;;221.67;209.87;;;;;;;6.78;100.00;99738.63;5010657;28;20433;-46
2024/01/01 03:53:18;;;;;;;220.37;207.93;;;;;;;6.78;100.00;99733.31;5009415;28;20445;-46
2024/01/01 03:55:46;;;;;;;231.97;219.13;;;;;;;6.77;100.00;99734.34;5005056;28;20449;-46
2024/01/01 03:58:14;;;;;;;226.23;213.33;;;;;;;6.79;100.00;99734.13;5002483;28;20849;-44
2024/01/01 04:00:41;;;;;;;231.00;218.07;;;;;;;6.76;100.00;99732.72;5011264;28;20436;-45
2024/01/01 04:03:09;;;;;;;247.83;233.43;;;;;;;6.76;100.00;99729.22;5011314;28;20547;-44
2024/01/01 04:05:37;;;;;;;240.77;226.67;;;;;;;6.76;100.00;99727.41;5011546;28;20452;-43
2024/01/01 04:08:07;;;;;;;241.80;226.40;;;;;;;6.73;100.00;99726.97;5010936;28;20460;-42
2024/01/01 04:10:36;;;;;;;245.43;231.83;;;;;;;6.73;100.00;99719.84;5011155;28;20532;-49
2024/01/01 04:13:04;;;;;;;245.70;231.40;;;;;;;6.72;100.00;99726.16;5011329;28;20456;-44
2024/01/01 04:15:32;;;;;;;246.03;232.53;;;;;;;6.73;100.00;99721.69;4995089;28;20433;-43
2024/01/01 04:17:59;;;;;;;251.77;237.13;;;;;;;6.71;100.00;99721.88;5010915;28;20507;-42
2024/01/01 04:20:27;;;;;;;247.70;234.13;;;;;;;6.70;100.00;99714.94;5010923;28;20476;-42
2024/01/01 04:22:55;;;;;;;256.70;241.50;;;;;;;6.70;100.00;99717.59;5011163;28;20453;-43
2024/01/01 04:25:25;;;;;;;242.70;228.97;;;;;;;6.71;100.00;99718.41;5011425;28;20592;-45
2024/01/01 04:27:53;;;;;;;243.23;229.40;;;;;;;6.70;100.00;99720.25;5010888;28;20461;-42
2024/01/01 04:30:21;;;;;;;248.53;235.13;;;;;;;6.70;100.00;99722.88;5003221;28;20435;-44
2024/01/01 04:32:49;;;;;;;251.60;237.83;;;;;;;6.72;100.00;99720.06;5011052;28;20493;-41
2024/01/01 04:35:17;;;;;;;249.50;235.53;;;;;;;6.72;100.00;99726.16;5011075;28;20950;-43
2024/01/01 04:37:44;;;;;;;256.53;242.63;;;;;;;6.73;100.00;99719.03;5011133;28;20465;-46
2024/01/01 04:40:12;;;;;;;245.93;232.57;;;;;;;6.74;100.00;99729.44;5010354;28;20987;-42
2024/01/01 04:42:42;;;;;;;245.60;232.20;;;;;;;6.75;100.00;99725.75;4995490;28;20467;-45
2024/01/01 04:45:11;;;;;;;242.20;229.27;;;;;;;6.76;100.00;99729.22;5011379;28;20859;-49
2024/01/01 04:47:39;;;;;;;248.70;236.00;;;;;;;6.74;100.00;99734.75;5003290;28;20496;-44
2024/01/01 04:50:08;;;;;;;244.07;231.30;;;;;;;6.72;100.00;99731.44;5010809;28;20472;-46
2024/01/01 04:52:36;;;;;;;255.03;242.27;;;;;;;6.71;100.00;99735.13;5002945;28;20461;-45
2024/01/01 04:55:05;;;;;;;254.40;241.80;;;;;;;6.72;100.00;99736.75;5004561;28;20464;-43
2024/01/01 04:57:32;;;;;;;255.00;242.17;;;;;;;6.70;100.00;99736.13;5010698;28;20458;-45
2024/01/01 05:00:03;;;;;;;253.87;241.33;;;;;;;6.69;100.00;99743.25;5010774;28;20531;-44
2024/01/01 05:02:30;;;;;;;250.97;238.30;;;;;;;6.69;100.00;99737.13;5010534;28;20457;-44
2024/01/01 05:04:58;;;;;;;239.87;227.37;;;;;;;6.70;100.00;99744.09;5011196;28;20443;-46
2024/01/01 05:07:27;;;;;;;245.43;233.40;;;;;;;6.71;100.00;99736.97;5010429;28;20518;-44
2024/01/01 05:09:54;;;;;;;247.60;234.63;;;;;;;6.72;100.00;99733.31;5010299;28;20922;-45
2024/01/01 05:12:22;;;;;;;254.33;241.87;;;;;;;6.71;100.00;99731.66;5010037;28;20473;-43
2024/01/01 05:14:50;;;;;;;251.70;238.87;;;;;;;6.71;100.00;99732.47;5010621;28;20536;-44
2024/01/01 05:17:20;;;;;;;250.93;237.77;;;;;;;6.69;100.00;99730.03;5010220;28;20461;-48
2024/01/01 05:19:50;;;;;;;248.17;235.37;;;;;;;6.72;100.00;99734.09;5010309;28;20500;-46
2024/01/01 05:22:18;;;;;;;253.00;239.83;;;;;;;6.70;100.00;99733.50;5012200;28;20457;-46
2024/01/01 05:24:46;;;;;;;243.00;231.40;;;;;;;6.68;100.00;99727.56;5014425;28;20499;-44
2024/01/01 05:27:14;;;;;;;243.20;231.30;;;;;;;6.70;100.00;99738.78;5013739;28;20515;-43
2024/01/01 05:29:42;;;;;;;239.57;227.47;;;;;;;6.68;100.00;99738.19;5005723;28;20519;-44
2024/01/01 05:32:10;;;;;;;228.53;217.07;;;;;;;6.69;100.00;99730.03;5006519;28;20509;-43
2024/01/01 05:34:40;;;;;;;226.13;215.60;;;;;;;6.68;100.00;99732.88;5014083;28;20437;-46
2024/01/01 05:37:08;;;;;;;232.80;221.20;;;;;;;6.70;100.00;99733.50;5013668;28;20971;-41
2024/01/01 05:39:36;;;;;;;228.73;217.93;;;;;;;6.71;100.00;99732.47;5013488;28;20531;-43
2024/01/01 05:42:04;;;;;;;238.30;227.00;;;;;;;6.71;100.00;99729.84;5013542;28;20530;-41
2024/01/01 05:44:32;;;;;;;238.27;227.03;;;;;;;6.71;100.00;99718.41;5013755;28;20551;-46
2024/01/01 05:47:00;;;;;;;232.87;222.23;;;;;;;6.69;100.00;99721.25;5013374;28;20441;-43
2024/01/01 05:49:28;;;;;;;232.83;222.50;;;;;;;6.67;100.00;99726.75;5013236;28;20448;-46
2024/01/01 05:51:56;;;;;;;237.73;226.80;;;;;;;6.68;100.00;99715.16;5013681;28;20493;-43
2024/01/01 05:54:24;;;;;;;233.13;222.93;;;;;;;6.69;100.00;99715.94;5006516;28;20470;-45
2024/01/01 05:56:52;;;;;;;231.83;221.10;;;;;;;6.68;100.00;99716.97;5013366;28;20958;-43
2024/01/01 05:59:19;;;;;;;242.97;232.10;;;;;;;6.70;100.00;99712.28;5012685;28;20459;-42
2024/01/01 06:01:48;;;;;;;231.80;221.20;;;;;;;6.72;100.00;99714.75;5006526;28;20519;-43
2024/01/01 06:04:15;;;;;;;235.20;224.50;;;;;;;6.69;100.00;99710.66;5013476;28;20472;-43
2024/01/01 06:06:43;;;;;;;238.10;227.53;;;;;;;6.69;100.00;99708.00;5013163;28;20782;-42
2024/01/01 06:09:13;;;;;;;239.53;228.73;;;;;;;6.68;100.00;99715.16;5013250;28;20447;-45
2024/01/01 06:11:41;;;;;;;234.33;223.77;;;;;;;6.66;100.00;99719.00;5013587;28;20548;-45
2024/01/01 06:14:09;;;;;;;231.77;221.53;;;;;;;6.63;100.00;99722.06;5013828;28;20459;-43
2024/01/01 06:16:37;;;;;;;239.57;228.63;;;;;;;6.61;100.00;99724.06;5013185;28;20524;-45
2024/01/01 06:19:07;;;;;;;259.53;248.13;;;;;;;6.58;100.00;99724.44;5012802;28;20457;-44
2024/01/01 06:21:35;;;;;;;255.33;243.83;;;;;;;6.55;100.00;99728.31;5010504;28;20480;-45
2024/01/01 06:24:03;;;;;;;254.30;242.97;;;;;;;6.49;100.00;99728.28;5007993;28;20925;-45
2024/01/01 06:26:32;;;;;;;272.60;260.70;;;;;;;6.44;100.00;99728.03;5013324;28;20437;-43
2024/01/01 06:29:00;;;;;;;279.37;266.57;;;;;;;6.38;100.00;99728.81;5012615;28;20453;-43
2024/01/01 06:31:32;;;;;;;273.40;260.53;;;;;;;6.32;100.00;99732.25;5013051;28;20461;-45
2024/01/01 06:34:02;;;;;;;282.47;270.27;;;;;;;6.27;100.00;99729.38;5012127;28;20469;-41
2024/01/01 06:36:30;;;;;;;285.53;272.70;;;;;;;6.22;100.00;99732.56;5011741;28;20460;-43
2024/01/01 06:38:58;;;;;;;290.10;276.77;;;;;;;6.19;100.00;99740.91;5012473;28;20556;-41
2024/01/01 06:41:26;;;;;;;282.67;269.60;;;;;;;6.18;100.00;99727.88;5035448;23;20496;-38
2024/01/01 06:43:55;;;;;;;290.90;277.97;;;;;;;6.18;100.00;99734.00;5010198;28;20870;-38
2024/01/01 06:46:23;;;;;;;307.37;293.83;;;;;;;6.19;100.00;99730.31;5012524;28;20437;-38
2024/01/01 06:48:50;;;;;;;284.57;272.03;;;;;;;6.21;100.00;99728.31;5012478;28;20556;-38
2024/01/01 06:51:18;;;;;;;276.53;263.97;;;;;;;6.23;100.00;99731.56;5012899;28;20445;-38
2024/01/01 06:53:46;;;;;;;282.60;269.70;;;;;;;6.28;100.00;99739.75;5001509;28;20512;-36
2024/01/01 06:56:14;;;;;;;276.97;264.73;;;;;;;6.32;100.00;99743.66;5001505;28;20531;-38
2024/01/01 06:58:42;;;;;;;264.90;253.10;;;;;;;6.38;100.00;99736.75;5004234;28;20839;-37
2024/01/01 07:01:12;;;;;;;261.50;249.70;;;;;;;6.41;100.00;99744.31;4997442;28;20505;-38
2024/01/01 07:03:40;;;;;;;257.80;245.50;;;;;;;6.44;100.00;99749.22;4992871;28;20442;-36
2024/01/01 07:06:07;;;;;;;253.77;241.83;;;;;;;6.48;100.00;99750.50;4992952;28;20449;-36
2024/01/01 07:08:35;;;;;;;252.90;240.40;;;;;;;6.49;100.00;99750.28;5000426;28;20824;-36
2024/01/01 07:11:03;;;;;;;257.77;245.93;;;;;;;6.53;100.00;99756.03;4992905;28;20441;-38
2024/01/01 07:13:31;;;;;;;245.77;234.57;;;;;;;6.56;100.00;99761.75;4992456;28;20461;-37
2024/01/01 07:15:59;;;;;;;244.00;232.47;;;;;;;6.59;100.00;99761.34;4998188;28;20445;-39
2024/01/01 07:18:28;;;;;;;242.77;231.80;;;;;;;6.62;100.00;99762.78;5010638;28;20480;-39
2024/01/01 07:20:56;;;;;;;228.10;217.37;;;;;;;6.66;100.00;99769.31;4997790;28;20468;-36
2024/01/01 07:23:24;;;;;;;235.70;224.30;;;;;;;6.68;100.00;99768.13;4995707;28;21003;-37
2024/01/01 07:25:52;;;;;;;233.03;222.00;;;;;;;6.71;100.00;99772.22;4999612;28;20962;-37
2024/01/01 07:28:19;;;;;;;233.90;222.73;;;;;;;6.74;100.00;99774.50;5000040;28;20462;-36
2024/01/01 07:30:47;;;;;;;239.57;228.27;;;;;;;6.76;100.00;99775.09;4995819;28;20437;-36
2024/01/01 07:33:15;;;;;;;229.83;219.43;;;;;;;6.79;100.00;99777.34;5003859;28;20515;-36
2024/01/01 07:35:44;;;;;;;231.77;221.00;;;;;;;6.82;100.00;99779.63;4992763;28;20438;-38
2024/01/01 07:38:12;;;;;;;240.10;228.60;;;;;;;6.83;100.00;99778.63;5000056;28;20893;-36
2024/01/01 07:40:41;;;;;;;238.00;226.80;;;;;;;6.82;100.00;99778.78;4994815;28;20478;-42
2024/01/01 07:43:09;;;;;;;244.27;231.93;;;;;;;6.86;100.00;99782.69;5005377;28;20473;-37
2024/01/01 07:45:37;;;;;;;243.43;231.93;;;;;;;6.87;100.00;99779.06;4991281;28;20449;-38
2024/01/01 07:48:06;;;;;;;230.40;219.80;;;;;;;6.90;100.00;99786.59;4991344;28;21063;-38
2024/01/01 07:50:35;;;;;;;230.80;219.70;;;;;;;6.89;100.00;99788.44;4992111;28;20489;-38
2024/01/01 07:53:05;;;;;;;222.63;212.03;;;;;;;6.91;100.00;99783.75;5000391;28;20465;-37
2024/01/01 07:55:32;;;;;;;225.97;214.63;;;;;;;6.91;100.00;99778.44;4991455;28;20450;-39
2024/01/01 07:58:00;;;;;;;230.70;219.63;;;;;;;6.94;100.00;99785.19;5000052;28;21271;-37
2024/01/01 08:00:28;;;;;;;225.67;214.70;;;;;;;6.97;100.00;99788.25;5000719;28;20441;-37
2024/01/01 08:02:56;;;;;;;222.10;210.20;;;;;;;6.99;100.00;99785.44;5003180;28;20460;-37
2024/01/01 08:05:24;;;;;;;231.77;219.43;;;;;;;6.98;100.00;99784.59;4994853;28;20446;-37
2024/01/01 08:07:52;;;;;;;246.10;234.13;;;;;;;7.01;100.00;99789.53;5002482;28;20507;-37
2024/01/01 08:10:21;;;;;;;242.53;230.87;;;;;;;7.03;100.00;99787.47;4996257;28;20955;-37
2024/01/01 08:12:48;;;;;;;237.10;226.30;;;;;;;7.01;100.00;99786.88;4992057;28;20508;-37
2024/01/01 08:15:16;;;;;;;236.33;225.13;;;;;;;7.05;100.00;99784.63;4999029;28;20437;-38
2024/01/01 08:17:44;;;;;;;239.57;228.83;;;;;;;7.04;100.00;99788.31;4991947;28;20500;-38
2024/01/01 08:20:12;;;;;;;233.20;222.93;;;;;;;7.07;100.00;99794.03;4991638;28;20942;-37
2024/01/01 08:22:40;;;;;;;223.40;212.97;;;;;;;7.09;100.00;99792.00;4991624;28;20910;-37
2024/01/01 08:25:09;;;;;;;231.00;220.50;;;;;;;7.10;100.00;99785.69;4991662;28;20445;-37
2024/01/01 08:27:38;;;;;;;225.33;215.13;;;;;;;7.15;100.00;99801.81;4991408;28;20549;-37
2024/01/01 08:30:07;;;;;;;221.40;211.53;;;;;;;7.13;100.00;99790.59;4992133;28;20960;-37
2024/01/01 08:32:35;;;;;;;214.97;205.37;;;;;;;7.16;100.00;99794.69;4991826;28;20454;-38
2024/01/01 08:35:03;;;;;;;220.63;210.83;;;;;;;7.20;100.00;99795.91;5004722;28;20920;-37
2024/01/01 08:37:31;;;;;;;222.80;212.90;;;;;;;7.19;100.00;99800.41;5001767;28;20541;-37
2024/01/01 08:39:59;;;;;;;220.20;209.60;;;;;;;7.24;100.00;99791.84;4989248;28;20434;-37
2024/01/01 08:42:27;;;;;;;221.37;211.87;;;;;;;7.26;100.00;99802.28;4999166;28;20469;-37
2024/01/01 08:44:56;;;;;;;236.87;226.23;;;;;;;7.26;100.00;99799.63;4991860;28;20444;-37
2024/01/01 08:47:23;;;;;;;234.23;224.13;;;;;;;7.28;100.00;99806.38;4991277;28;20553;-37
2024/01/01 08:49:51;;;;;;;224.60;214.70;;;;;;;7.29;100.00;99800.03;4983700;28;20461;-37
2024/01/01 08:52:19;;;;;;;229.50;219.20;;;;;;;7.30;100.00;99808.81;4991350;28;20523;-37
2024/01/01 08:54:47;;;;;;;228.73;218.77;;;;;;;7.28;100.00;99806.38;4991708;28;20445;-37
2024/01/01 08:57:15;;;;;;;230.63;220.60;;;;;;;7.33;100.00;99805.75;5000940;28;20484;-37
2024/01/01 08:59:42;;;;;;;230.50;220.80;;;;;;;7.34;100.00;99802.91;4998648;28;20444;-37
2024/01/01 09:02:11;;;;;;;228.53;218.53;;;;;;;7.37;100.00;99805.19;5008657;28;20480;-37
2024/01/01 09:04:39;;;;;;;227.93;217.90;;;;;;;7.43;100.00;99808.88;5002943;28;20449;-37
2024/01/01 09:07:07;;;;;;;233.93;223.93;;;;;;;7.44;100.00;99805.19;4994691;28;20553;-38
2024/01/01 09:09:37;;;;;;;234.33;223.90;;;;;;;7.45;100.00;99810.28;5003248;28;20437;-38
2024/01/01 09:12:05;;;;;;;231.60;221.60;;;;;;;7.50;100.00;99802.56;4995230;28;20458;-37
2024/01/01 09:14:34;;;;;;;231.47;220.83;;;;;;;7.56;100.00;99811.53;4993967;28;20460;-37
2024/01/01 09:17:03;;;;;;;233.97;223.60;;;;;;;7.60;100.00;99807.47;4993077;28;20521;-37
2024/01/01 09:19:33;;;;;;;242.03;231.60;;;;;;;7.61;100.00;99811.78;4993441;28;20442;-39
2024/01/01 09:22:01;;;;;;;239.47;228.77;;;;;;;7.60;100.00;99820.75;4994162;28;20477;-37
2024/01/01 09:24:28;;;;;;;243.60;233.07;;;;;;;7.57;100.00;99818.50;5000429;28;20464;-38
2024/01/01 09:26:56;;;;;;;252.60;241.40;;;;;;;7.56;100.00;99819.50;4993495;28;20478;-37
2024/01/01 09:29:24;;;;;;;254.77;242.60;;;;;;;7.55;100.00;99808.09;4993183;28;20512;-37
2024/01/01 09:31:52;;;;;;;247.17;236.47;;;;;;;7.54;100.00;99825.03;4990847;28;20520;-39
2024/01/01 09:34:20;;;;;;;252.93;240.77;;;;;;;7.56;100.00;99817.66;5001595;28;20787;-37
2024/01/01 09:36:49;;;;;;;256.33;245.37;;;;;;;7.55;100.00;99825.84;5010603;28;20976;-38
2024/01/01 09:39:30;;;;;;;256.37;245.27;;;;;;;7.55;100.00;99828.50;4996476;28;20438;-38
2024/01/01 09:41:57;;;;;;;255.73;244.90;;;;;;;7.53;100.00;99831.34;4993137;28;20485;-37
2024/01/01 09:44:26;;;;;;;252.17;241.70;;;;;;;7.48;100.00;99827.66;4994736;28;20937;-36
2024/01/01 09:46:54;;;;;;;246.27;235.33;;;;;;;7.44;100.00;99829.03;4985414;28;20536;-37
2024/01/01 09:49:24;;;;;;;245.07;234.50;;;;;;;7.42;100.00;99829.25;4990676;28;20454;-36
2024/01/01 09:51:56;;;;;;;250.87;239.97;;;;;;;7.40;100.00;99830.47;4991626;28;20479;-37
2024/01/01 09:54:24;;;;;;;249.60;238.80;;;;;;;7.38;100.00;99828.00;4989762;28;20434;-37
2024/01/01 09:56:52;;;;;;;255.10;243.83;;;;;;;7.38;100.00;99829.88;4991415;28;20446;-37
2024/01/01 09:59:33;;;;;;;255.50;244.20;;;;;;;7.36;100.00;99834.53;4993095;28;20469;-37
2024/01/01 10:02:05;;;;;;;262.93;252.00;;;;;;;7.34;100.00;99836.56;4992734;28;20596;-38
2024/01/01 10:04:34;;;;;;;254.10;243.43;;;;;;;7.34;100.00;99833.91;4992625;28;20929;-37
2024/01/01 10:07:04;;;;;;;245.63;235.73;;;;;;;7.34;100.00;99829.44;4992024;28;21069;-38
2024/01/01 10:09:32;;;;;;;246.07;235.53;;;;;;;7.36;100.00;99827.41;4992888;28;20438;-37
2024/01/01 10:12:09;;;;;;;244.93;235.00;;;;;;;7.34;100.00;99833.91;4997526;28;20476;-39
2024/01/01 10:14:46;;;;;;;242.37;232.53;;;;;;;7.35;100.00;99833.72;4994584;28;21212;-36
2024/01/01 10:17:15;;;;;;;238.03;228.00;;;;;;;7.40;100.00;99839.25;4989976;28;20462;-37
2024/01/01 10:19:51;;;;;;;242.60;232.50;;;;;;;7.38;100.00;99838.63;4988054;28;20446;-37
2024/01/01 10:22:23;;;;;;;243.80;234.10;;;;;;;7.38;100.00;99829.88;4988995;28;20477;-38
2024/01/01 10:24:54;;;;;;;248.77;239.10;;;;;;;7.37;100.00;99826.41;5000070;28;20449;-40
2024/01/01 10:27:23;;;;;;;250.33;239.70;;;;;;;7.35;100.00;99824.97;4990922;28;20469;-37
2024/01/01 10:29:51;;;;;;;255.67;245.23;;;;;;;7.27;100.00;99823.28;4990728;28;20500;-37
2024/01/01 10:32:19;;;;;;;246.80;236.80;;;;;;;7.25;100.00;99822.66;4992607;28;20458;-37
2024/01/01 10:34:48;;;;;;;244.87;235.17;;;;;;;7.27;100.00;99819.81;4992282;28;20445;-37
2024/01/01 10:37:18;;;;;;;251.43;241.43;;;;;;;7.23;100.00;99827.31;4997290;28;20467;-36
2024/01/01 10:39:48;;;;;;;248.13;238.17;;;;;;;7.21;100.00;99822.25;5009681;28;20452;-37
2024/01/01 10:42:17;;;;;;;252.13;242.43;;;;;;;7.22;100.00;99821.22;4991564;28;20962;-39
2024/01/01 10:44:44;;;;;;;256.50;246.50;;;;;;;7.22;100.00;99834.50;4999909;28;20528;-39
2024/01/01 10:47:15;;;;;;;265.87;255.00;;;;;;;7.21;100.00;99826.72;4991522;28;20492;-36
2024/01/01 10:49:51;;;;;;;255.13;245.03;;;;;;;7.15;100.00;99828.31;4992564;28;20438;-36
2024/01/01 10:52:45;;;;;;;252.77;242.60;;;;;;;7.11;100.00;99827.06;4997413;28;20980;-37
2024/01/01 10:55:36;;;;;;;257.53;247.53;;;;;;;7.06;100.00;99834.81;4991644;28;20921;-39
2024/01/01 10:58:18;;;;;;;261.50;251.30;;;;;;;7.05;100.00;99832.34;4987373;28;20470;-39
2024/01/01 11:00:55;;;;;;;264.30;254.03;;;;;;;7.02;100.00;99827.41;4996628;28;20445;-37
2024/01/01 11:03:23;;;;;;;258.50;248.43;;;;;;;7.01;100.00;99826.63;4991557;28;20807;-37
2024/01/01 11:05:51;;;;;;;259.60;249.07;;;;;;;6.99;100.00;99835.78;5001540;28;20965;-37
2024/01/01 11:08:27;;;;;;;271.73;261.23;;;;;;;6.98;100.00;99827.03;5005127;28;20462;-37